sensor_id;sensor_type;location;lat;lon;timestamp;pressure;altitude;pressure_sealevel;temperature;humidity
71476;BME280;59286;59.274;17.974;2023-04-04T00:00:06;102650.25;;;-3.85;73.56
71476;BME280;59286;59.274;17.974;2023-04-04T00:02:32;102646.69;;;-3.92;73.98
71476;BME280;59286;59.274;17.974;2023-04-04T00:04:57;102653.06;;;-3.97;74.51
71476;BME280;59286;59.274;17.974;2023-04-04T00:07:23;102648.00;;;-4.06;75.11
71476;BME280;59286;59.274;17.974;2023-04-04T00:09:48;102643.94;;;-4.17;75.70
71476;BME280;59286;59.274;17.974;2023-04-04T00:12:13;102643.94;;;-4.17;76.01
71476;BME280;59286;59.274;17.974;2023-04-04T00:14:39;102650.38;;;-4.13;75.85
71476;BME280;59286;59.274;17.974;2023-04-04T00:17:04;102626.94;;;-4.18;75.55
71476;BME280;59286;59.274;17.974;2023-04-04T00:19:29;102632.47;;;-4.13;75.70
71476;BME280;59286;59.274;17.974;2023-04-04T00:21:55;102632.16;;;-4.10;75.25
71476;BME280;59286;59.274;17.974;2023-04-04T00:24:20;102619.66;;;-4.13;74.82
71476;BME280;59286;59.274;17.974;2023-04-04T00:26:46;102622.06;;;-4.11;75.71
71476;BME280;59286;59.274;17.974;2023-04-04T00:29:11;102626.09;;;-4.09;75.20
71476;BME280;59286;59.274;17.974;2023-04-04T00:31:36;102607.28;;;-4.17;75.33
71476;BME280;59286;59.274;17.974;2023-04-04T00:34:02;102622.06;;;-4.11;75.95
71476;BME280;59286;59.274;17.974;2023-04-04T00:36:27;102610.06;;;-4.11;75.87
71476;BME280;59286;59.274;17.974;2023-04-04T00:38:52;102614.38;;;-4.11;76.50
71476;BME280;59286;59.274;17.974;2023-04-04T00:41:18;102613.13;;;-4.07;75.84
71476;BME280;59286;59.274;17.974;2023-04-04T00:43:43;102602.91;;;-4.07;76.64
71476;BME280;59286;59.274;17.974;2023-04-04T00:46:09;102599.97;;;-4.12;76.70
71476;BME280;59286;59.274;17.974;2023-04-04T00:48:40;102608.00;;;-4.07;76.60
71476;BME280;59286;59.274;17.974;2023-04-04T00:51:06;102595.97;;;-4.15;76.09
71476;BME280;59286;59.274;17.974;2023-04-04T00:53:31;102599.44;;;-4.16;76.17
71476;BME280;59286;59.274;17.974;2023-04-04T00:55:57;102596.03;;;-4.24;75.85
71476;BME280;59286;59.274;17.974;2023-04-04T00:58:23;102596.34;;;-4.27;75.89
71476;BME280;59286;59.274;17.974;2023-04-04T01:00:50;102595.47;;;-4.36;76.76
71476;BME280;59286;59.274;17.974;2023-04-04T01:03:16;102585.16;;;-4.44;77.87
71476;BME280;59286;59.274;17.974;2023-04-04T01:05:42;102577.13;;;-4.49;77.98
71476;BME280;59286;59.274;17.974;2023-04-04T01:08:07;102593.34;;;-4.40;78.78
71476;BME280;59286;59.274;17.974;2023-04-04T01:10:33;102589.09;;;-4.32;78.80
71476;BME280;59286;59.274;17.974;2023-04-04T01:12:59;102581.94;;;-4.28;78.82
71476;BME280;59286;59.274;17.974;2023-04-04T01:15:24;102586.88;;;-4.27;78.63
71476;BME280;59286;59.274;17.974;2023-04-04T01:17:51;102581.50;;;-4.24;79.03
71476;BME280;59286;59.274;17.974;2023-04-04T01:20:24;102569.13;;;-4.28;78.78
71476;BME280;59286;59.274;17.974;2023-04-04T01:22:50;102582.81;;;-4.20;79.70
71476;BME280;59286;59.274;17.974;2023-04-04T01:25:17;102576.06;;;-4.21;79.08
71476;BME280;59286;59.274;17.974;2023-04-04T01:27:43;102580.94;;;-4.10;79.10
71476;BME280;59286;59.274;17.974;2023-04-04T01:30:09;102573.84;;;-4.16;78.95
71476;BME280;59286;59.274;17.974;2023-04-04T01:33:01;102585.13;;;-4.09;79.14
71476;BME280;59286;59.274;17.974;2023-04-04T01:35:49;102573.19;;;-4.18;79.47
71476;BME280;59286;59.274;17.974;2023-04-04T01:40:51;102580.41;;;-4.39;79.45
71476;BME280;59286;59.274;17.974;2023-04-04T01:43:19;102588.66;;;-4.45;79.57
71476;BME280;59286;59.274;17.974;2023-04-04T01:45:45;102583.13;;;-4.58;80.27
71476;BME280;59286;59.274;17.974;2023-04-04T01:48:11;102582.31;;;-4.58;79.97
71476;BME280;59286;59.274;17.974;2023-04-04T01:50:36;102584.75;;;-4.57;79.68
71476;BME280;59286;59.274;17.974;2023-04-04T01:53:01;102572.53;;;-4.63;80.17
71476;BME280;59286;59.274;17.974;2023-04-04T01:55:27;102580.19;;;-4.63;80.67
71476;BME280;59286;59.274;17.974;2023-04-04T01:57:52;102569.31;;;-4.65;80.80
71476;BME280;59286;59.274;17.974;2023-04-04T02:00:17;102577.34;;;-4.60;80.77
71476;BME280;59286;59.274;17.974;2023-04-04T02:02:43;102572.44;;;-4.71;81.61
71476;BME280;59286;59.274;17.974;2023-04-04T02:05:08;102568.06;;;-4.78;81.05
71476;BME280;59286;59.274;17.974;2023-04-04T02:07:34;102558.13;;;-4.81;81.43
71476;BME280;59286;59.274;17.974;2023-04-04T02:09:59;102556.50;;;-4.82;80.99
71476;BME280;59286;59.274;17.974;2023-04-04T02:12:25;102565.06;;;-4.74;79.65
71476;BME280;59286;59.274;17.974;2023-04-04T02:14:51;102565.66;;;-4.80;81.15
71476;BME280;59286;59.274;17.974;2023-04-04T02:17:16;102559.44;;;-4.95;82.08
71476;BME280;59286;59.274;17.974;2023-04-04T02:19:42;102564.84;;;-4.98;81.19
71476;BME280;59286;59.274;17.974;2023-04-04T02:22:07;102554.88;;;-5.01;80.47
71476;BME280;59286;59.274;17.974;2023-04-04T02:24:33;102554.88;;;-5.01;80.64
71476;BME280;59286;59.274;17.974;2023-04-04T02:26:58;102562.03;;;-5.05;81.45
71476;BME280;59286;59.274;17.974;2023-04-04T02:29:23;102546.75;;;-5.14;81.39
71476;BME280;59286;59.274;17.974;2023-04-04T02:31:48;102551.09;;;-5.15;81.41
71476;BME280;59286;59.274;17.974;2023-04-04T02:34:14;102555.53;;;-5.17;83.69
71476;BME280;59286;59.274;17.974;2023-04-04T02:36:39;102543.75;;;-5.27;85.64
71476;BME280;59286;59.274;17.974;2023-04-04T02:39:05;102541.66;;;-5.41;85.41
71476;BME280;59286;59.274;17.974;2023-04-04T02:41:30;102542.34;;;-5.39;85.51
71476;BME280;59286;59.274;17.974;2023-04-04T02:43:56;102538.00;;;-5.39;85.83
71476;BME280;59286;59.274;17.974;2023-04-04T02:46:21;102549.72;;;-5.36;84.60
71476;BME280;59286;59.274;17.974;2023-04-04T02:48:47;102546.59;;;-5.30;84.27
71476;BME280;59286;59.274;17.974;2023-04-04T02:51:12;102535.69;;;-5.32;83.73
71476;BME280;59286;59.274;17.974;2023-04-04T02:53:38;102534.06;;;-5.33;84.00
71476;BME280;59286;59.274;17.974;2023-04-04T02:56:03;102543.75;;;-5.27;84.18
71476;BME280;59286;59.274;17.974;2023-04-04T02:58:30;102548.28;;;-5.21;82.61
71476;BME280;59286;59.274;17.974;2023-04-04T03:00:56;102542.13;;;-5.28;83.91
71476;BME280;59286;59.274;17.974;2023-04-04T03:03:21;102539.47;;;-5.36;84.39
71476;BME280;59286;59.274;17.974;2023-04-04T03:05:48;102541.00;;;-5.43;85.15
71476;BME280;59286;59.274;17.974;2023-04-04T03:08:14;102546.38;;;-5.46;85.12
71476;BME280;59286;59.274;17.974;2023-04-04T03:10:40;102546.53;;;-5.48;85.02
71476;BME280;59286;59.274;17.974;2023-04-04T03:13:05;102539.16;;;-5.51;84.50
71476;BME280;59286;59.274;17.974;2023-04-04T03:15:31;102544.78;;;-5.47;84.97
71476;BME280;59286;59.274;17.974;2023-04-04T03:17:57;102539.25;;;-5.43;84.84
71476;BME280;59286;59.274;17.974;2023-04-04T03:20:23;102536.16;;;-5.46;84.79
71476;BME280;59286;59.274;17.974;2023-04-04T03:22:49;102525.53;;;-5.42;83.81
71476;BME280;59286;59.274;17.974;2023-04-04T03:25:15;102528.91;;;-5.41;83.50
71476;BME280;59286;59.274;17.974;2023-04-04T03:27:41;102536.28;;;-5.38;83.58
71476;BME280;59286;59.274;17.974;2023-04-04T03:30:07;102522.09;;;-5.50;83.49
71476;BME280;59286;59.274;17.974;2023-04-04T03:32:33;102533.13;;;-5.59;84.68
71476;BME280;59286;59.274;17.974;2023-04-04T03:34:58;102512.88;;;-5.70;84.43
71476;BME280;59286;59.274;17.974;2023-04-04T03:37:23;102525.91;;;-5.64;84.99
71476;BME280;59286;59.274;17.974;2023-04-04T03:39:49;102512.09;;;-5.71;85.22
71476;BME280;59286;59.274;17.974;2023-04-04T03:42:14;102524.56;;;-5.68;85.77
71476;BME280;59286;59.274;17.974;2023-04-04T03:44:40;102512.88;;;-5.70;85.37
71476;BME280;59286;59.274;17.974;2023-04-04T03:47:05;102517.31;;;-5.72;85.77
71476;BME280;59286;59.274;17.974;2023-04-04T03:49:31;102520.66;;;-5.62;85.07
71476;BME280;59286;59.274;17.974;2023-04-04T03:51:57;102506.97;;;-5.61;84.02
71476;BME280;59286;59.274;17.974;2023-04-04T03:54:23;102514.63;;;-5.61;83.46
71476;BME280;59286;59.274;17.974;2023-04-04T03:56:48;102517.19;;;-5.61;84.74
71476;BME280;59286;59.274;17.974;2023-04-04T03:59:13;102503.47;;;-5.70;84.43
71476;BME280;59286;59.274;17.974;2023-04-04T04:01:39;102503.94;;;-5.74;84.37
71476;BME280;59286;59.274;17.974;2023-04-04T04:04:04;102502.84;;;-5.81;85.05
71476;BME280;59286;59.274;17.974;2023-04-04T04:06:30;102498.38;;;-5.87;85.05
71476;BME280;59286;59.274;17.974;2023-04-04T04:08:56;102495.59;;;-5.76;84.42
71476;BME280;59286;59.274;17.974;2023-04-04T04:11:22;102501.63;;;-5.77;84.24
71476;BME280;59286;59.274;17.974;2023-04-04T04:13:47;102499.03;;;-5.68;83.57
71476;BME280;59286;59.274;17.974;2023-04-04T04:16:13;102502.47;;;-5.59;82.59
71476;BME280;59286;59.274;17.974;2023-04-04T04:18:38;102497.63;;;-5.53;83.09
71476;BME280;59286;59.274;17.974;2023-04-04T04:21:04;102507.13;;;-5.45;82.93
71476;BME280;59286;59.274;17.974;2023-04-04T04:23:30;102497.47;;;-5.51;84.70
71476;BME280;59286;59.274;17.974;2023-04-04T04:25:55;102494.13;;;-5.52;84.80
71476;BME280;59286;59.274;17.974;2023-04-04T04:28:21;102486.84;;;-5.47;85.34
71476;BME280;59286;59.274;17.974;2023-04-04T04:30:48;102488.38;;;-5.36;84.90
71476;BME280;59286;59.274;17.974;2023-04-04T04:33:13;102487.91;;;-5.22;84.91
71476;BME280;59286;59.274;17.974;2023-04-04T04:35:39;102489.88;;;-5.16;84.95
71476;BME280;59286;59.274;17.974;2023-04-04T04:38:05;102480.69;;;-5.09;84.61
71476;BME280;59286;59.274;17.974;2023-04-04T04:40:33;102470.81;;;-5.04;84.54
71476;BME280;59286;59.274;17.974;2023-04-04T04:42:59;102470.59;;;-4.93;84.24
71476;BME280;59286;59.274;17.974;2023-04-04T04:45:24;102481.94;;;-4.78;83.67
71476;BME280;59286;59.274;17.974;2023-04-04T04:47:50;102490.03;;;-4.65;83.39
71476;BME280;59286;59.274;17.974;2023-04-04T04:50:16;102481.28;;;-4.54;82.63
71476;BME280;59286;59.274;17.974;2023-04-04T04:52:42;102482.19;;;-4.46;82.76
71476;BME280;59286;59.274;17.974;2023-04-04T04:55:07;102478.72;;;-4.37;82.33
71476;BME280;59286;59.274;17.974;2023-04-04T04:57:33;102479.72;;;-4.30;82.16
71476;BME280;59286;59.274;17.974;2023-04-04T04:59:59;102463.25;;;-4.27;82.21
71476;BME280;59286;59.274;17.974;2023-04-04T05:02:25;102482.09;;;-4.03;82.27
71476;BME280;59286;59.274;17.974;2023-04-04T05:04:51;102484.38;;;-3.92;82.27
71476;BME280;59286;59.274;17.974;2023-04-04T05:07:16;102484.44;;;-3.83;82.60
71476;BME280;59286;59.274;17.974;2023-04-04T05:09:41;102477.13;;;-3.70;82.28
71476;BME280;59286;59.274;17.974;2023-04-04T05:12:07;102488.72;;;-3.50;82.02
71476;BME280;59286;59.274;17.974;2023-04-04T05:14:32;102481.72;;;-3.40;82.07
71476;BME280;59286;59.274;17.974;2023-04-04T05:16:57;102490.06;;;-3.22;81.85
71476;BME280;59286;59.274;17.974;2023-04-04T05:19:23;102473.59;;;-3.20;81.80
71476;BME280;59286;59.274;17.974;2023-04-04T05:21:48;102477.94;;;-2.96;81.61
71476;BME280;59286;59.274;17.974;2023-04-04T05:24:13;102474.91;;;-2.83;80.95
71476;BME280;59286;59.274;17.974;2023-04-04T05:26:41;102487.09;;;-2.69;81.32
71476;BME280;59286;59.274;17.974;2023-04-04T05:29:06;102478.13;;;-2.57;81.01
71476;BME280;59286;59.274;17.974;2023-04-04T05:31:32;102474.34;;;-2.23;80.31
71476;BME280;59286;59.274;17.974;2023-04-04T05:33:57;102470.78;;;-2.06;79.75
71476;BME280;59286;59.274;17.974;2023-04-04T05:36:23;102469.44;;;-1.85;78.99
71476;BME280;59286;59.274;17.974;2023-04-04T05:38:48;102471.72;;;-1.60;79.12
71476;BME280;59286;59.274;17.974;2023-04-04T05:41:14;102481.03;;;-1.28;78.17
71476;BME280;59286;59.274;17.974;2023-04-04T05:43:39;102467.38;;;-1.06;77.47
71476;BME280;59286;59.274;17.974;2023-04-04T05:46:04;102467.59;;;-0.93;76.86
71476;BME280;59286;59.274;17.974;2023-04-04T05:48:30;102476.81;;;-0.76;76.43
71476;BME280;59286;59.274;17.974;2023-04-04T05:50:55;102479.09;;;-0.44;74.79
71476;BME280;59286;59.274;17.974;2023-04-04T05:53:21;102468.19;;;-0.31;74.74
71476;BME280;59286;59.274;17.974;2023-04-04T05:55:50;102468.88;;;-0.37;73.59
71476;BME280;59286;59.274;17.974;2023-04-04T05:58:16;102461.69;;;-0.42;74.52
71476;BME280;59286;59.274;17.974;2023-04-04T06:00:42;102464.09;;;-0.26;73.91
71476;BME280;59286;59.274;17.974;2023-04-04T06:03:08;102465.28;;;-0.14;73.46
71476;BME280;59286;59.274;17.974;2023-04-04T06:05:33;102471.75;;;-0.03;73.12
71476;BME280;59286;59.274;17.974;2023-04-04T06:07:58;102466.69;;;0.04;73.02
71476;BME280;59286;59.274;17.974;2023-04-04T06:10:24;102466.88;;;0.17;72.43
71476;BME280;59286;59.274;17.974;2023-04-04T06:12:50;102466.91;;;0.38;71.89
71476;BME280;59286;59.274;17.974;2023-04-04T06:15:15;102466.63;;;0.47;71.87
71476;BME280;59286;59.274;17.974;2023-04-04T06:17:41;102456.41;;;0.39;70.40
71476;BME280;59286;59.274;17.974;2023-04-04T06:20:07;102460.88;;;0.31;70.50
71476;BME280;59286;59.274;17.974;2023-04-04T06:22:32;102465.94;;;0.39;71.06
71476;BME280;59286;59.274;17.974;2023-04-04T06:24:59;102470.72;;;0.42;70.74
71476;BME280;59286;59.274;17.974;2023-04-04T06:27:24;102471.97;;;0.46;70.07
71476;BME280;59286;59.274;17.974;2023-04-04T06:29:50;102474.78;;;0.51;70.11
71476;BME280;59286;59.274;17.974;2023-04-04T06:32:15;102474.78;;;0.51;70.00
71476;BME280;59286;59.274;17.974;2023-04-04T06:34:40;102469.38;;;0.46;70.38
71476;BME280;59286;59.274;17.974;2023-04-04T06:37:06;102476.31;;;0.81;69.51
71476;BME280;59286;59.274;17.974;2023-04-04T06:39:31;102471.16;;;0.81;68.06
71476;BME280;59286;59.274;17.974;2023-04-04T06:41:58;102470.16;;;1.03;68.79
71476;BME280;59286;59.274;17.974;2023-04-04T06:44:24;102459.34;;;0.72;68.67
71476;BME280;59286;59.274;17.974;2023-04-04T06:46:50;102463.97;;;0.97;68.13
71476;BME280;59286;59.274;17.974;2023-04-04T06:49:15;102468.19;;;1.05;68.36
71476;BME280;59286;59.274;17.974;2023-04-04T06:51:40;102466.00;;;1.02;68.02
71476;BME280;59286;59.274;17.974;2023-04-04T06:54:06;102464.53;;;0.93;68.38
71476;BME280;59286;59.274;17.974;2023-04-04T06:56:32;102449.97;;;0.85;68.18
71476;BME280;59286;59.274;17.974;2023-04-04T06:58:57;102466.72;;;1.17;68.15
71476;BME280;59286;59.274;17.974;2023-04-04T07:01:23;102457.25;;;1.24;67.08
71476;BME280;59286;59.274;17.974;2023-04-04T07:03:51;102458.56;;;1.41;67.07
71476;BME280;59286;59.274;17.974;2023-04-04T07:06:17;102465.31;;;1.42;66.80
71476;BME280;59286;59.274;17.974;2023-04-04T07:08:43;102452.19;;;1.37;66.62
71476;BME280;59286;59.274;17.974;2023-04-04T07:11:08;102465.59;;;1.26;66.56
71476;BME280;59286;59.274;17.974;2023-04-04T07:13:34;102464.81;;;1.05;67.70
71476;BME280;59286;59.274;17.974;2023-04-04T07:15:59;102457.31;;;0.88;68.09
71476;BME280;59286;59.274;17.974;2023-04-04T07:18:26;102470.00;;;0.83;67.98
71476;BME280;59286;59.274;17.974;2023-04-04T07:20:51;102458.34;;;0.73;68.25
71476;BME280;59286;59.274;17.974;2023-04-04T07:23:17;102468.66;;;0.73;68.45
71476;BME280;59286;59.274;17.974;2023-04-04T07:25:42;102475.16;;;0.83;68.55
71476;BME280;59286;59.274;17.974;2023-04-04T07:28:07;102467.72;;;0.95;68.20
71476;BME280;59286;59.274;17.974;2023-04-04T07:30:33;102464.53;;;0.93;67.15
71476;BME280;59286;59.274;17.974;2023-04-04T07:32:59;102468.06;;;0.92;67.19
71476;BME280;59286;59.274;17.974;2023-04-04T07:35:25;102466.38;;;0.78;67.52
71476;BME280;59286;59.274;17.974;2023-04-04T07:37:50;102469.91;;;0.77;68.41
71476;BME280;59286;59.274;17.974;2023-04-04T07:40:16;102476.13;;;0.61;67.51
71476;BME280;59286;59.274;17.974;2023-04-04T07:42:46;102475.31;;;0.61;68.09
71476;BME280;59286;59.274;17.974;2023-04-04T07:45:12;102478.56;;;0.69;68.07
71476;BME280;59286;59.274;17.974;2023-04-04T07:47:44;102472.38;;;0.85;67.74
71476;BME280;59286;59.274;17.974;2023-04-04T07:50:11;102473.63;;;0.89;66.65
71476;BME280;59286;59.274;17.974;2023-04-04T07:52:37;102477.31;;;0.80;67.04
71476;BME280;59286;59.274;17.974;2023-04-04T07:55:03;102475.94;;;0.84;67.32
71476;BME280;59286;59.274;17.974;2023-04-04T07:57:29;102464.66;;;1.06;66.41
71476;BME280;59286;59.274;17.974;2023-04-04T07:59:55;102474.56;;;1.30;65.16
71476;BME280;59286;59.274;17.974;2023-04-04T08:02:20;102470.97;;;1.52;64.54
71476;BME280;59286;59.274;17.974;2023-04-04T08:04:46;102476.41;;;1.64;64.00
71476;BME280;59286;59.274;17.974;2023-04-04T08:07:11;102465.84;;;1.59;62.76
71476;BME280;59286;59.274;17.974;2023-04-04T08:09:36;102468.16;;;1.47;62.92
71476;BME280;59286;59.274;17.974;2023-04-04T08:12:02;102468.88;;;1.69;63.09
71476;BME280;59286;59.274;17.974;2023-04-04T08:14:30;102474.56;;;1.85;63.46
71476;BME280;59286;59.274;17.974;2023-04-04T08:16:55;102468.22;;;1.94;62.41
71476;BME280;59286;59.274;17.974;2023-04-04T08:19:21;102478.44;;;2.03;61.89
71476;BME280;59286;59.274;17.974;2023-04-04T08:21:46;102483.50;;;2.24;61.29
71476;BME280;59286;59.274;17.974;2023-04-04T08:24:12;102487.22;;;2.15;60.86
71476;BME280;59286;59.274;17.974;2023-04-04T08:26:37;102473.63;;;1.99;60.68
71476;BME280;59286;59.274;17.974;2023-04-04T08:29:02;102475.91;;;2.22;60.80
71476;BME280;59286;59.274;17.974;2023-04-04T08:31:28;102485.34;;;2.43;60.56
71476;BME280;59286;59.274;17.974;2023-04-04T08:33:54;102486.38;;;2.48;59.84
71476;BME280;59286;59.274;17.974;2023-04-04T08:36:20;102475.63;;;2.45;58.28
71476;BME280;59286;59.274;17.974;2023-04-04T08:38:45;102487.38;;;2.47;57.56
71476;BME280;59286;59.274;17.974;2023-04-04T08:41:11;102487.41;;;2.60;57.41
71476;BME280;59286;59.274;17.974;2023-04-04T08:43:38;102489.44;;;2.78;54.48
71476;BME280;59286;59.274;17.974;2023-04-04T08:46:06;102481.88;;;2.76;54.92
71476;BME280;59286;59.274;17.974;2023-04-04T08:48:34;102485.47;;;2.82;53.97
71476;BME280;59286;59.274;17.974;2023-04-04T08:51:02;102476.75;;;2.96;53.01
71476;BME280;59286;59.274;17.974;2023-04-04T08:53:29;102478.91;;;2.86;54.66
71476;BME280;59286;59.274;17.974;2023-04-04T08:55:55;102474.72;;;2.85;53.82
71476;BME280;59286;59.274;17.974;2023-04-04T08:58:22;102464.16;;;2.80;53.32
71476;BME280;59286;59.274;17.974;2023-04-04T09:00:51;102465.59;;;2.89;54.00
71476;BME280;59286;59.274;17.974;2023-04-04T09:03:22;102467.16;;;2.96;56.18
71476;BME280;59286;59.274;17.974;2023-04-04T09:05:48;102473.97;;;3.11;56.23
71476;BME280;59286;59.274;17.974;2023-04-04T09:08:15;102473.94;;;3.30;54.68
71476;BME280;59286;59.274;17.974;2023-04-04T09:10:42;102469.97;;;3.34;50.93
71476;BME280;59286;59.274;17.974;2023-04-04T09:13:08;102471.94;;;3.45;52.29
71476;BME280;59286;59.274;17.974;2023-04-04T09:15:36;102468.56;;;3.25;51.81
71476;BME280;59286;59.274;17.974;2023-04-04T09:18:03;102460.41;;;3.09;51.41
71476;BME280;59286;59.274;17.974;2023-04-04T09:20:36;102453.22;;;3.04;52.48
71476;BME280;59286;59.274;17.974;2023-04-04T09:23:13;102472.75;;;2.93;53.44
71476;BME280;59286;59.274;17.974;2023-04-04T09:25:44;102475.53;;;2.92;52.54
71476;BME280;59286;59.274;17.974;2023-04-04T09:28:13;102472.34;;;2.90;51.68
71476;BME280;59286;59.274;17.974;2023-04-04T09:30:40;102464.78;;;2.95;50.59
71476;BME280;59286;59.274;17.974;2023-04-04T09:33:08;102465.78;;;3.01;51.62
71476;BME280;59286;59.274;17.974;2023-04-04T09:35:36;102461.59;;;3.06;52.37
71476;BME280;59286;59.274;17.974;2023-04-04T09:38:05;102465.00;;;3.33;52.39
71476;BME280;59286;59.274;17.974;2023-04-04T09:40:30;102465.38;;;3.49;51.28
71476;BME280;59286;59.274;17.974;2023-04-04T09:43:00;102460.41;;;3.28;50.42
71476;BME280;59286;59.274;17.974;2023-04-04T09:45:26;102451.84;;;3.21;51.04
71476;BME280;59286;59.274;17.974;2023-04-04T09:47:52;102458.81;;;3.40;50.50
71476;BME280;59286;59.274;17.974;2023-04-04T09:50:22;102471.13;;;3.64;50.79
71476;BME280;59286;59.274;17.974;2023-04-04T09:52:49;102460.78;;;3.71;50.71
71476;BME280;59286;59.274;17.974;2023-04-04T09:55:14;102462.34;;;3.78;48.73
71476;BME280;59286;59.274;17.974;2023-04-04T09:57:40;102452.16;;;3.83;48.22
71476;BME280;59286;59.274;17.974;2023-04-04T10:00:06;102458.19;;;3.64;46.80
71476;BME280;59286;59.274;17.974;2023-04-04T10:02:33;102457.56;;;3.62;47.02
71476;BME280;59286;59.274;17.974;2023-04-04T10:05:02;102447.97;;;3.69;46.13
71476;BME280;59286;59.274;17.974;2023-04-04T10:07:28;102458.34;;;3.69;45.43
71476;BME280;59286;59.274;17.974;2023-04-04T10:09:54;102455.00;;;3.69;44.08
71476;BME280;59286;59.274;17.974;2023-04-04T10:12:23;102451.59;;;3.68;45.65
71476;BME280;59286;59.274;17.974;2023-04-04T10:14:56;102455.59;;;3.64;42.37
71476;BME280;59286;59.274;17.974;2023-04-04T10:17:23;102462.75;;;3.62;41.82
71476;BME280;59286;59.274;17.974;2023-04-04T10:19:50;102444.78;;;3.74;42.39
71476;BME280;59286;59.274;17.974;2023-04-04T10:22:19;102458.56;;;3.74;43.02
71476;BME280;59286;59.274;17.974;2023-04-04T10:24:45;102454.16;;;3.81;42.90
71476;BME280;59286;59.274;17.974;2023-04-04T10:27:11;102456.63;;;4.14;42.76
71476;BME280;59286;59.274;17.974;2023-04-04T10:29:36;102450.72;;;4.01;42.32
71476;BME280;59286;59.274;17.974;2023-04-04T10:32:04;102453.84;;;4.09;42.27
71476;BME280;59286;59.274;17.974;2023-04-04T10:34:37;102454.22;;;4.19;42.84
71476;BME280;59286;59.274;17.974;2023-04-04T10:37:11;102452.59;;;4.25;42.13
71476;BME280;59286;59.274;17.974;2023-04-04T10:39:47;102452.16;;;4.34;42.36
71476;BME280;59286;59.274;17.974;2023-04-04T10:42:17;102433.84;;;4.23;42.72
71476;BME280;59286;59.274;17.974;2023-04-04T10:44:44;102444.63;;;4.26;41.73
71476;BME280;59286;59.274;17.974;2023-04-04T10:47:16;102446.38;;;4.32;42.78
71476;BME280;59286;59.274;17.974;2023-04-04T10:49:45;102429.84;;;4.20;42.51
71476;BME280;59286;59.274;17.974;2023-04-04T10:52:13;102429.09;;;4.13;42.17
71476;BME280;59286;59.274;17.974;2023-04-04T10:54:40;102434.50;;;4.12;42.84
71476;BME280;59286;59.274;17.974;2023-04-04T10:57:06;102421.47;;;4.25;42.38
71476;BME280;59286;59.274;17.974;2023-04-04T10:59:32;102427.50;;;4.12;41.77
71476;BME280;59286;59.274;17.974;2023-04-04T11:01:58;102419.53;;;4.14;42.21
71476;BME280;59286;59.274;17.974;2023-04-04T11:04:36;102426.41;;;4.33;42.11
71476;BME280;59286;59.274;17.974;2023-04-04T11:07:10;102425.50;;;4.52;42.14
71476;BME280;59286;59.274;17.974;2023-04-04T11:09:53;102421.69;;;4.54;41.82
71476;BME280;59286;59.274;17.974;2023-04-04T11:12:27;102421.38;;;4.75;42.82
71476;BME280;59286;59.274;17.974;2023-04-04T11:15:04;102421.16;;;4.77;41.71
71476;BME280;59286;59.274;17.974;2023-04-04T11:17:49;102417.53;;;4.78;41.10
71476;BME280;59286;59.274;17.974;2023-04-04T11:20:29;102418.78;;;4.75;41.87
71476;BME280;59286;59.274;17.974;2023-04-04T11:23:05;102411.50;;;4.84;40.99
71476;BME280;59286;59.274;17.974;2023-04-04T11:25:32;102414.81;;;4.98;41.19
71476;BME280;59286;59.274;17.974;2023-04-04T11:28:04;102412.81;;;4.93;41.65
71476;BME280;59286;59.274;17.974;2023-04-04T11:30:29;102404.97;;;4.75;41.83
71476;BME280;59286;59.274;17.974;2023-04-04T11:32:58;102405.78;;;4.75;42.76
71476;BME280;59286;59.274;17.974;2023-04-04T11:35:24;102408.16;;;4.77;42.52
71476;BME280;59286;59.274;17.974;2023-04-04T11:40:15;102398.63;;;4.71;42.62
71476;BME280;59286;59.274;17.974;2023-04-04T11:42:40;102397.34;;;4.80;43.14
71476;BME280;59286;59.274;17.974;2023-04-04T11:45:06;102400.31;;;4.83;43.17
71476;BME280;59286;59.274;17.974;2023-04-04T11:47:33;102398.31;;;4.85;43.40
71476;BME280;59286;59.274;17.974;2023-04-04T11:50:00;102404.59;;;4.96;42.67
71476;BME280;59286;59.274;17.974;2023-04-04T11:52:33;102401.88;;;5.09;42.61
71476;BME280;59286;59.274;17.974;2023-04-04T11:54:59;102401.69;;;5.11;42.41
71476;BME280;59286;59.274;17.974;2023-04-04T11:57:25;102400.44;;;4.95;43.13
71476;BME280;59286;59.274;17.974;2023-04-04T11:59:51;102397.09;;;4.88;43.32
71476;BME280;59286;59.274;17.974;2023-04-04T12:02:35;102397.19;;;4.75;43.70
71476;BME280;59286;59.274;17.974;2023-04-04T12:05:00;102384.34;;;4.80;43.42
71476;BME280;59286;59.274;17.974;2023-04-04T12:07:29;102381.13;;;4.84;43.87
71476;BME280;59286;59.274;17.974;2023-04-04T12:09:55;102384.91;;;4.88;43.46
71476;BME280;59286;59.274;17.974;2023-04-04T12:12:21;102375.25;;;4.96;43.30
71476;BME280;59286;59.274;17.974;2023-04-04T12:14:47;102371.09;;;4.88;42.91
71476;BME280;59286;59.274;17.974;2023-04-04T12:17:14;102373.06;;;4.92;43.35
71476;BME280;59286;59.274;17.974;2023-04-04T12:19:41;102373.22;;;4.98;43.65
71476;BME280;59286;59.274;17.974;2023-04-04T12:22:07;102370.91;;;4.89;43.28
71476;BME280;59286;59.274;17.974;2023-04-04T12:24:33;102371.72;;;4.83;43.97
71476;BME280;59286;59.274;17.974;2023-04-04T12:26:59;102367.94;;;4.86;43.80
71476;BME280;59286;59.274;17.974;2023-04-04T12:29:25;102367.66;;;4.94;44.00
71476;BME280;59286;59.274;17.974;2023-04-04T12:31:53;102367.66;;;4.94;43.71
71476;BME280;59286;59.274;17.974;2023-04-04T12:34:24;102373.38;;;5.03;44.32
71476;BME280;59286;59.274;17.974;2023-04-04T12:36:56;102371.22;;;5.00;43.21
71476;BME280;59286;59.274;17.974;2023-04-04T12:39:25;102365.69;;;5.14;43.97
71476;BME280;59286;59.274;17.974;2023-04-04T12:41:58;102369.56;;;5.05;43.13
71476;BME280;59286;59.274;17.974;2023-04-04T12:44:30;102356.28;;;5.13;42.97
71476;BME280;59286;59.274;17.974;2023-04-04T12:46:57;102363.31;;;5.13;42.83